Time;durP1;ratioP1;P1;durP2;ratioP2;P2;SDS_P1;SDS_P2;PMS_P1;PMS_P2;Temp;Humidity;BMP_temperature;BMP_pressure;BME280_temperature;BME280_humidity;BME280_pressure;Samples;Min_cycle;Max_cycle;Signal;HPM_P1;HPM_P2
2022/12/14 00:01:09;;;;;;;53.15;36.70;;;-3.60;99.90;;;;;;4980451;28;90732;-31
2022/12/14 00:03:35;;;;;;;48.15;35.50;;;-3.70;99.90;;;;;;4980171;28;89780;-31
2022/12/14 00:06:16;;;;;;;52.85;36.20;;;-3.70;99.90;;;;;;4980211;28;90392;-34
2022/12/14 00:08:43;;;;;;;49.53;34.13;;;-3.80;99.90;;;;;;4979704;28;89074;-32
2022/12/14 00:11:09;;;;;;;51.92;34.22;;;-3.90;99.90;;;;;;4979382;28;89038;-33
2022/12/14 00:13:36;;;;;;;47.63;32.97;;;-4.00;99.90;;;;;;4966805;28;89790;-32
2022/12/14 00:16:11;;;;;;;49.33;38.28;;;-4.10;99.90;;;;;;4979885;28;90009;-31
2022/12/14 00:18:37;;;;;;;51.95;33.13;;;-4.10;99.90;;;;;;4980436;28;89406;-32
2022/12/14 00:21:08;;;;;;;51.25;36.75;;;-4.20;99.90;;;;;;4979798;28;91274;-33
2022/12/14 00:23:34;;;;;;;45.33;33.25;;;-4.30;99.90;;;;;;4978869;28;90399;-31
2022/12/14 00:26:07;;;;;;;45.90;33.13;;;-4.30;99.90;;;;;;4978945;28;90335;-29
2022/12/14 00:28:33;;;;;;;44.60;32.60;;;-4.40;99.90;;;;;;4979215;28;90175;-29
2022/12/14 00:30:58;;;;;;;48.03;31.45;;;-4.40;99.90;;;;;;4979690;28;89340;-32
2022/12/14 00:33:24;;;;;;;47.33;31.92;;;-4.40;99.90;;;;;;4979267;28;88986;-34
2022/12/14 00:35:50;;;;;;;51.80;34.08;;;-4.40;99.90;;;;;;4979160;28;90133;-34
2022/12/14 00:38:15;;;;;;;49.92;32.92;;;-4.40;99.90;;;;;;4979788;28;89573;-36
2022/12/14 00:40:41;;;;;;;48.58;33.72;;;-4.50;99.90;;;;;;4979656;28;91007;-31
2022/12/14 00:43:07;;;;;;;48.95;31.83;;;-4.50;99.90;;;;;;4980285;28;88724;-32
2022/12/14 00:45:32;;;;;;;49.50;33.33;;;-4.50;99.90;;;;;;4979107;28;90028;-31
2022/12/14 00:47:58;;;;;;;48.78;32.65;;;-4.50;99.90;;;;;;4978729;28;90645;-33
2022/12/14 00:50:23;;;;;;;44.22;33.28;;;-4.50;99.90;;;;;;4978563;28;89897;-36
2022/12/14 00:52:49;;;;;;;50.58;34.70;;;-4.60;99.90;;;;;;4978858;28;88458;-32
2022/12/14 00:55:14;;;;;;;58.00;37.92;;;-4.60;99.90;;;;;;4979741;28;90983;-32
2022/12/14 00:57:40;;;;;;;53.88;34.38;;;-4.60;99.90;;;;;;4978242;28;90501;-31
2022/12/14 01:00:06;;;;;;;51.58;35.58;;;-4.60;99.90;;;;;;4979232;28;89310;-34
2022/12/14 01:02:32;;;;;;;54.22;34.60;;;-4.60;99.90;;;;;;4979409;28;89435;-31
2022/12/14 01:04:57;;;;;;;55.50;35.72;;;-4.60;99.90;;;;;;4977309;28;89658;-31
2022/12/14 01:07:23;;;;;;;50.22;35.72;;;-4.60;99.90;;;;;;4979788;28;89728;-32
2022/12/14 01:09:49;;;;;;;47.70;36.67;;;-4.60;99.90;;;;;;4979383;28;89040;-32
2022/12/14 01:12:14;;;;;;;52.95;37.67;;;-4.60;99.90;;;;;;4968782;28;89084;-32
2022/12/14 01:14:40;;;;;;;51.15;36.15;;;-4.60;99.90;;;;;;4974888;28;89999;-30
2022/12/14 01:17:05;;;;;;;57.90;37.92;;;-4.60;99.90;;;;;;4978996;28;89880;-34
2022/12/14 01:19:31;;;;;;;44.92;35.08;;;-4.60;99.90;;;;;;4979645;28;88055;-31
2022/12/14 01:21:57;;;;;;;57.65;36.35;;;-4.60;99.90;;;;;;4978543;28;88471;-30
2022/12/14 01:24:23;;;;;;;53.17;35.03;;;-4.60;99.90;;;;;;4978910;28;89952;-36
2022/12/14 01:26:49;;;;;;;59.75;36.97;;;-4.60;99.90;;;;;;4978894;28;90498;-32
2022/12/14 01:29:15;;;;;;;50.70;32.35;;;-4.70;99.90;;;;;;4979000;28;89728;-31
2022/12/14 01:31:41;;;;;;;51.72;33.97;;;-4.70;99.90;;;;;;4979117;28;89654;-30
2022/12/14 01:34:07;;;;;;;50.70;34.22;;;-4.70;99.90;;;;;;4978833;28;90993;-30
2022/12/14 01:36:34;;;;;;;47.70;34.03;;;-4.80;99.90;;;;;;4977939;28;90206;-32
2022/12/14 01:39:06;;;;;;;52.90;31.83;;;-4.80;99.90;;;;;;4964873;28;91496;-30
2022/12/14 01:41:44;;;;;;;47.92;34.55;;;-4.80;99.90;;;;;;4978839;28;89184;-34
2022/12/14 01:44:10;;;;;;;58.03;36.08;;;-4.80;99.90;;;;;;4978497;28;89574;-33
2022/12/14 01:46:40;;;;;;;46.05;33.50;;;-4.80;99.90;;;;;;4978084;28;89743;-33
2022/12/14 01:49:21;;;;;;;46.30;34.05;;;-4.80;99.90;;;;;;4978510;28;90008;-34
2022/12/14 01:52:11;;;;;;;63.08;33.80;;;-4.80;99.90;;;;;;4978665;28;89009;-31
2022/12/14 01:54:41;;;;;;;50.60;34.70;;;-4.80;99.90;;;;;;4978563;28;90188;-34
2022/12/14 01:57:10;;;;;;;56.67;36.38;;;-4.80;99.90;;;;;;4978586;28;89466;-31
2022/12/14 01:59:39;;;;;;;60.30;36.65;;;-4.80;99.90;;;;;;4978229;28;89379;-31
2022/12/14 02:02:08;;;;;;;51.80;34.15;;;-4.80;99.90;;;;;;4979074;28;89107;-34
2022/12/14 02:04:38;;;;;;;50.95;33.45;;;-4.70;99.90;;;;;;4984940;28;89895;-33
2022/12/14 02:07:04;;;;;;;55.55;38.60;;;-4.70;99.90;;;;;;4985614;28;89800;-32
2022/12/14 02:09:33;;;;;;;55.90;33.88;;;-4.70;99.90;;;;;;4984288;28;89538;-33
2022/12/14 02:11:59;;;;;;;54.45;33.13;;;-4.80;99.90;;;;;;4977120;28;88387;-34
2022/12/14 02:14:25;;;;;;;54.20;36.90;;;-4.80;99.90;;;;;;4977579;28;88908;-32
2022/12/14 02:16:53;;;;;;;51.97;34.65;;;-4.80;99.90;;;;;;4985341;28;89486;-33
2022/12/14 02:19:19;;;;;;;50.53;31.42;;;-4.90;99.90;;;;;;4985200;28;90622;-32
2022/12/14 02:21:54;;;;;;;46.88;32.55;;;-5.00;99.90;;;;;;4984605;28;89894;-33
2022/12/14 02:24:41;;;;;;;46.72;33.50;;;-5.00;99.90;;;;;;4984729;28;90238;-31
2022/12/14 02:27:45;;;;;;;53.92;33.80;;;-5.10;99.90;;;;;;4984097;28;91347;-32
2022/12/14 02:30:19;;;;;;;54.88;32.50;;;-5.20;99.90;;;;;;4922618;28;90429;-34
2022/12/14 02:32:48;;;;;;;50.78;32.35;;;-5.30;99.90;;;;;;4922741;28;89237;-32
2022/12/14 02:35:19;;;;;;;;;;;-5.30;99.90;;;;;;4955203;28;90269;-32
2022/12/14 02:37:53;;;;;;;46.20;31.08;;;-5.30;99.90;;;;;;4987163;28;89515;-32
2022/12/14 02:40:40;;;;;;;46.67;32.40;;;-5.40;99.90;;;;;;4984195;28;89708;-33
2022/12/14 02:43:05;;;;;;;58.15;31.05;;;-5.40;99.90;;;;;;4985245;28;89184;-33
2022/12/14 02:45:38;;;;;;;44.65;31.83;;;-5.50;99.90;;;;;;4984379;28;89819;-32
2022/12/14 02:48:15;;;;;;;53.85;32.05;;;-5.50;99.90;;;;;;4984842;28;89715;-30
2022/12/14 02:51:12;;;;;;;48.78;31.05;;;-5.50;99.90;;;;;;4984687;28;90602;-31
2022/12/14 02:53:54;;;;;;;48.53;35.47;;;-5.50;99.90;;;;;;4971735;28;89546;-32
2022/12/14 02:56:28;;;;;;;57.22;33.67;;;-5.50;99.90;;;;;;4984607;28;90480;-34
2022/12/14 02:58:55;;;;;;;48.15;32.30;;;-5.50;99.90;;;;;;4983440;28;89424;-34
2022/12/14 03:01:26;;;;;;;50.45;33.10;;;-5.50;99.90;;;;;;4984019;28;89937;-32
2022/12/14 03:03:51;;;;;;;53.45;32.75;;;-5.60;99.90;;;;;;4984382;28;88184;-31
2022/12/14 03:06:27;;;;;;;47.22;31.20;;;-5.60;99.90;;;;;;4981970;28;89856;-32
2022/12/14 03:09:01;;;;;;;53.22;35.03;;;-5.70;99.90;;;;;;4982854;28;89491;-31
2022/12/14 03:11:51;;;;;;;48.30;32.10;;;-5.70;99.90;;;;;;4984664;28;90721;-32
2022/12/14 03:14:26;;;;;;;46.88;32.33;;;-5.80;99.90;;;;;;4981882;28;89123;-31
2022/12/14 03:16:56;;;;;;;50.58;32.90;;;-5.80;99.90;;;;;;4981233;28;90260;-31
2022/12/14 03:19:38;;;;;;;47.20;29.23;;;-5.90;99.90;;;;;;4980666;28;90775;-29
2022/12/14 03:22:10;;;;;;;54.95;31.58;;;-5.90;99.90;;;;;;4980699;28;90236;-31
2022/12/14 03:24:44;;;;;;;46.75;29.85;;;-6.00;99.90;;;;;;4980014;28;89682;-31
2022/12/14 03:27:15;;;;;;;57.53;33.65;;;-6.00;99.90;;;;;;4980692;28;90087;-33
2022/12/14 03:29:51;;;;;;;51.33;31.67;;;-6.00;99.90;;;;;;4980820;28;89746;-31
2022/12/14 03:32:20;;;;;;;44.83;28.77;;;-6.10;99.90;;;;;;4981013;28;90361;-33
2022/12/14 03:35:07;;;;;;;46.10;31.35;;;-6.10;99.90;;;;;;4980175;28;88058;-32
2022/12/14 03:37:50;;;;;;;45.95;30.30;;;-6.10;99.90;;;;;;4979927;28;90234;-31
2022/12/14 03:40:17;;;;;;;51.88;30.63;;;-6.20;99.90;;;;;;4980701;28;90512;-31
2022/12/14 03:42:51;;;;;;;49.75;30.38;;;-6.20;99.90;;;;;;4980455;28;90714;-32
2022/12/14 03:45:28;;;;;;;46.75;31.80;;;-6.20;99.90;;;;;;4980254;28;90180;-35
2022/12/14 03:48:14;;;;;;;57.17;33.20;;;-6.20;99.90;;;;;;4980395;28;90737;-34
2022/12/14 03:50:51;;;;;;;44.38;28.25;;;-6.20;99.90;;;;;;4980576;28;90026;-31
2022/12/14 03:53:44;;;;;;;45.63;29.63;;;-6.20;99.90;;;;;;4979960;28;89558;-32
2022/12/14 03:56:22;;;;;;;53.42;31.17;;;-6.10;99.90;;;;;;4980751;28;87711;-33
2022/12/14 03:59:05;;;;;;;51.35;31.42;;;-6.00;99.90;;;;;;4980529;28;90340;-34
2022/12/14 04:02:10;;;;;;;55.08;33.47;;;-5.80;99.90;;;;;;4979348;28;89548;-32
2022/12/14 04:04:44;;;;;;;48.35;30.40;;;-5.70;99.90;;;;;;4956508;28;88580;-32
2022/12/14 04:07:22;;;;;;;53.60;30.48;;;-5.80;99.90;;;;;;4980288;28;89321;-33
2022/12/14 04:18:58;;;;;;;45.30;28.35;;;-6.10;99.90;;;;;;4980123;28;88955;-32
2022/12/14 04:22:05;;;;;;;52.85;34.10;;;-6.20;99.90;;;;;;4980177;28;89887;-34
2022/12/14 04:27:29;;;;;;;50.03;30.77;;;-6.30;99.90;;;;;;4979855;28;89659;-34
2022/12/14 04:29:59;;;;;;;53.03;32.25;;;-6.30;99.90;;;;;;4979795;28;89620;-32
2022/12/14 04:32:51;;;;;;;53.92;33.45;;;-6.30;99.90;;;;;;4979286;28;90724;-30
2022/12/14 04:35:24;;;;;;;53.55;32.22;;;-6.20;99.90;;;;;;4980322;28;88383;-31
2022/12/14 04:37:59;;;;;;;51.50;35.55;;;-6.20;99.90;;;;;;4978699;28;89867;-31
2022/12/14 04:40:28;;;;;;;50.42;31.92;;;-6.20;99.90;;;;;;4979211;28;88974;-31
2022/12/14 04:42:59;;;;;;;52.05;31.65;;;-6.20;99.90;;;;;;4979931;28;88995;-32
2022/12/14 04:45:33;;;;;;;61.22;30.05;;;-6.20;99.90;;;;;;4978537;28;89316;-31
2022/12/14 04:48:08;;;;;;;55.33;33.63;;;-6.30;99.90;;;;;;4978944;28;89383;-31
2022/12/14 04:50:40;;;;;;;42.08;30.13;;;-6.30;99.90;;;;;;4979014;28;88239;-32
2022/12/14 04:53:20;;;;;;;46.13;31.40;;;-6.30;99.90;;;;;;4979389;28;90179;-33
2022/12/14 04:55:59;;;;;;;56.35;30.58;;;-6.20;99.90;;;;;;4978952;28;90682;-32
2022/12/14 04:58:28;;;;;;;52.30;30.67;;;-6.30;99.90;;;;;;4979003;28;89600;-31
2022/12/14 05:01:36;;;;;;;52.25;31.58;;;-6.30;99.90;;;;;;4978968;28;89722;-32
2022/12/14 05:04:24;;;;;;;50.33;28.45;;;-6.30;99.90;;;;;;4977424;28;89011;-30
2022/12/14 05:07:22;;;;;;;50.47;28.83;;;-6.40;99.90;;;;;;4978627;28;89159;-30
2022/12/14 05:10:07;;;;;;;49.58;29.35;;;-6.40;99.90;;;;;;4978526;28;90627;-34
2022/12/14 05:12:47;;;;;;;37.78;27.02;;;-6.40;99.90;;;;;;4979463;28;88660;-31
2022/12/14 05:15:18;;;;;;;44.78;26.60;;;-6.50;99.90;;;;;;4978429;28;90294;-32
2022/12/14 05:17:44;;;;;;;47.08;27.30;;;-6.50;99.90;;;;;;4978682;28;91269;-31
2022/12/14 05:20:28;;;;;;;45.33;29.15;;;-6.60;99.90;;;;;;4979262;28;89705;-34
2022/12/14 05:22:53;;;;;;;40.92;29.30;;;-6.60;99.90;;;;;;4979547;28;87671;-31
2022/12/14 05:25:19;;;;;;;46.67;29.73;;;-6.60;99.90;;;;;;4978640;28;90123;-30
2022/12/14 05:27:45;;;;;;;45.78;29.67;;;-6.50;99.90;;;;;;4978054;28;91487;-31
2022/12/14 05:30:11;;;;;;;48.03;29.92;;;-6.50;99.90;;;;;;4978639;28;89452;-31
2022/12/14 05:32:36;;;;;;;46.05;27.45;;;-6.50;99.90;;;;;;4978307;28;90918;-31
2022/12/14 05:35:03;;;;;;;46.22;27.27;;;-6.50;99.90;;;;;;4978473;28;90288;-31
2022/12/14 05:37:28;;;;;;;43.90;29.95;;;-6.50;99.90;;;;;;4977806;28;89244;-30
2022/12/14 05:39:54;;;;;;;44.47;28.65;;;-6.60;99.90;;;;;;4978422;28;89465;-31
2022/12/14 05:42:20;;;;;;;42.92;27.20;;;-6.70;99.90;;;;;;4977882;28;90208;-34
2022/12/14 05:44:46;;;;;;;44.83;29.42;;;-6.70;99.90;;;;;;4978650;28;90191;-32
2022/12/14 05:47:12;;;;;;;44.47;28.67;;;-6.80;99.90;;;;;;4978658;28;89732;-32
2022/12/14 05:49:38;;;;;;;47.63;27.67;;;-6.80;99.90;;;;;;4978870;28;89535;-32
2022/12/14 05:52:04;;;;;;;42.80;29.48;;;-6.80;99.90;;;;;;4978353;28;88929;-31
2022/12/14 05:54:30;;;;;;;45.80;27.85;;;-6.80;99.90;;;;;;4977603;28;90012;-33
2022/12/14 05:56:55;;;;;;;50.83;27.27;;;-6.80;99.90;;;;;;4978321;28;91070;-34
2022/12/14 05:59:21;;;;;;;45.92;27.98;;;-6.80;99.90;;;;;;4978250;28;90899;-34
2022/12/14 06:01:48;;;;;;;43.50;27.85;;;-6.80;99.90;;;;;;4978143;28;88490;-32
2022/12/14 06:04:15;;;;;;;54.13;30.52;;;-6.80;99.90;;;;;;4977601;28;92120;-31
2022/12/14 06:06:41;;;;;;;45.13;28.35;;;-6.80;99.90;;;;;;4976995;28;89678;-30
2022/12/14 06:09:08;;;;;;;48.90;29.90;;;-6.90;99.90;;;;;;4978990;28;90185;-30
2022/12/14 06:11:38;;;;;;;41.53;26.67;;;-6.80;99.90;;;;;;4978242;28;89203;-32
2022/12/14 06:14:04;;;;;;;44.25;26.83;;;-6.80;99.90;;;;;;4978369;28;90163;-32
2022/12/14 06:16:30;;;;;;;42.33;26.38;;;-6.80;99.90;;;;;;4977357;28;89589;-32
2022/12/14 06:18:58;;;;;;;45.67;29.67;;;-6.70;99.90;;;;;;4978309;28;89985;-30
2022/12/14 06:21:28;;;;;;;36.22;24.60;;;-6.60;99.90;;;;;;4977577;28;88506;-33
2022/12/14 06:23:54;;;;;;;50.30;28.42;;;-6.60;99.90;;;;;;4978031;28;89752;-33
2022/12/14 06:26:20;;;;;;;43.22;26.40;;;-6.60;99.90;;;;;;4977358;28;89671;-31
2022/12/14 06:28:46;;;;;;;44.60;27.88;;;-6.50;99.90;;;;;;4977597;28;89740;-33
2022/12/14 06:31:17;;;;;;;51.08;28.30;;;-6.60;99.90;;;;;;4978274;28;87989;-29
2022/12/14 06:33:42;;;;;;;37.47;27.17;;;-6.60;99.90;;;;;;4977819;28;90170;-33
2022/12/14 06:36:18;;;;;;;43.05;27.38;;;-6.60;99.90;;;;;;4977914;28;89207;-32
2022/12/14 06:38:44;;;;;;;46.20;28.25;;;-6.60;99.90;;;;;;4977742;28;89539;-33
2022/12/14 06:41:10;;;;;;;41.85;25.15;;;-6.60;99.90;;;;;;4977833;28;87974;-32
2022/12/14 06:43:36;;;;;;;41.42;26.45;;;-6.60;99.90;;;;;;4977551;28;90085;-30
2022/12/14 06:46:09;;;;;;;39.08;27.67;;;-6.70;99.90;;;;;;4977448;28;90721;-32
2022/12/14 06:48:35;;;;;;;43.30;25.15;;;-6.70;99.90;;;;;;4977284;28;90818;-31
2022/12/14 06:51:02;;;;;;;42.75;27.13;;;-6.70;99.90;;;;;;4980954;28;88127;-32
2022/12/14 06:53:29;;;;;;;43.72;24.73;;;-6.70;99.90;;;;;;4980818;28;89983;-32
2022/12/14 06:56:07;;;;;;;40.20;27.88;;;-6.70;99.90;;;;;;4980684;28;89693;-31
2022/12/14 06:58:34;;;;;;;39.45;25.08;;;-6.70;99.90;;;;;;4980702;28;89938;-30
2022/12/14 07:01:06;;;;;;;36.22;25.60;;;-6.80;99.90;;;;;;4981594;28;89267;-33
2022/12/14 07:03:32;;;;;;;40.92;26.70;;;-6.80;99.90;;;;;;4981492;28;89739;-32
2022/12/14 07:05:58;;;;;;;42.33;24.63;;;-6.90;99.90;;;;;;4980562;28;89356;-32
2022/12/14 07:08:24;;;;;;;38.25;25.30;;;-6.90;99.90;;;;;;4980051;28;90088;-31
2022/12/14 07:10:51;;;;;;;40.17;23.98;;;-7.00;99.90;;;;;;4980594;28;89253;-32
2022/12/14 07:13:17;;;;;;;36.83;24.08;;;-7.00;99.90;;;;;;4981342;28;90438;-29
2022/12/14 07:15:43;;;;;;;36.25;24.38;;;-6.90;99.90;;;;;;4980527;28;89345;-33
2022/12/14 07:18:09;;;;;;;49.72;26.25;;;-7.00;99.90;;;;;;4980391;28;88971;-30
2022/12/14 07:20:35;;;;;;;42.83;26.17;;;-7.00;99.90;;;;;;4980339;28;89161;-32
2022/12/14 07:23:00;;;;;;;37.63;22.88;;;-7.00;99.90;;;;;;4980650;28;90223;-34
2022/12/14 07:25:26;;;;;;;43.63;24.75;;;-7.00;99.90;;;;;;4980903;28;89774;-30
2022/12/14 07:27:51;;;;;;;42.58;22.58;;;-7.00;99.90;;;;;;4980380;28;89589;-30
2022/12/14 07:30:17;;;;;;;36.10;24.30;;;-7.00;99.90;;;;;;4981283;28;88627;-31
2022/12/14 07:32:43;;;;;;;43.97;24.67;;;-7.00;99.90;;;;;;4979658;28;90025;-31
2022/12/14 07:35:08;;;;;;;36.70;23.08;;;-7.00;99.90;;;;;;4979217;28;90335;-35
2022/12/14 07:37:34;;;;;;;46.40;30.52;;;-7.00;99.90;;;;;;4979196;28;90472;-33
2022/12/14 07:40:00;;;;;;;39.80;26.35;;;-6.90;99.90;;;;;;4981132;28;89166;-34
2022/12/14 07:42:25;;;;;;;46.10;27.55;;;-7.00;99.90;;;;;;4980092;28;90640;-29
2022/12/14 07:44:51;;;;;;;43.55;29.27;;;-6.90;99.90;;;;;;4977376;28;90087;-31
2022/12/14 07:47:17;;;;;;;34.95;23.58;;;-7.00;99.90;;;;;;4979753;28;89042;-33
2022/12/14 07:49:43;;;;;;;42.20;26.83;;;-7.00;99.90;;;;;;4979802;28;88843;-34
2022/12/14 07:52:08;;;;;;;38.42;26.20;;;-6.90;99.90;;;;;;4981334;28;90505;-32
2022/12/14 07:54:34;;;;;;;36.75;24.83;;;-7.00;99.90;;;;;;4979872;28;90129;-32
2022/12/14 07:57:00;;;;;;;45.13;24.00;;;-7.00;99.90;;;;;;4978254;28;90313;-30
2022/12/14 07:59:26;;;;;;;37.60;22.98;;;-7.00;99.90;;;;;;4980214;28;88121;-31
2022/12/14 08:01:52;;;;;;;41.00;26.70;;;-7.00;99.90;;;;;;4980179;28;89836;-31
2022/12/14 08:04:19;;;;;;;35.63;25.30;;;-6.90;99.90;;;;;;4980558;28;88236;-33
2022/12/14 08:06:46;;;;;;;39.17;24.90;;;-7.00;99.90;;;;;;4979946;28;89677;-34
2022/12/14 08:09:14;;;;;;;33.65;21.58;;;-7.00;99.90;;;;;;4981006;28;90402;-30
2022/12/14 08:11:40;;;;;;;32.65;20.58;;;-7.00;99.90;;;;;;4979257;28;89966;-33
2022/12/14 08:14:17;;;;;;;42.78;26.27;;;-6.90;99.90;;;;;;4980823;28;88771;-31
2022/12/14 08:16:44;;;;;;;40.13;22.17;;;-6.90;99.90;;;;;;4980584;28;90338;-33
2022/12/14 08:19:11;;;;;;;36.78;22.40;;;-6.80;99.90;;;;;;4980035;28;88396;-33
2022/12/14 08:21:36;;;;;;;45.28;25.77;;;-6.80;99.90;;;;;;4978969;28;90624;-33
2022/12/14 08:24:02;;;;;;;43.40;23.40;;;-6.80;99.90;;;;;;4980467;28;90828;-33
2022/12/14 08:26:28;;;;;;;41.60;26.35;;;-6.80;99.90;;;;;;4979616;28;90753;-32
2022/12/14 08:28:55;;;;;;;37.85;23.85;;;-6.80;99.90;;;;;;4980613;28;89888;-32
2022/12/14 08:31:23;;;;;;;47.90;24.52;;;-6.80;99.90;;;;;;4980042;28;90628;-32
2022/12/14 08:33:49;;;;;;;38.22;23.55;;;-6.70;99.90;;;;;;4979447;28;89856;-32
2022/12/14 08:36:16;;;;;;;38.72;24.23;;;-6.70;99.90;;;;;;4980322;28;90240;-31
2022/12/14 08:38:43;;;;;;;39.40;23.98;;;-6.60;99.90;;;;;;4978935;28;89857;-30
2022/12/14 08:41:11;;;;;;;38.45;20.67;;;-6.50;99.90;;;;;;4980168;28;90940;-32
2022/12/14 08:43:37;;;;;;;47.40;25.52;;;-6.40;99.90;;;;;;4979207;28;90448;-32
2022/12/14 08:46:04;;;;;;;42.47;25.67;;;-6.30;99.90;;;;;;4980050;28;90219;-36
2022/12/14 08:48:30;;;;;;;44.17;24.55;;;-6.20;99.90;;;;;;4978652;28;89950;-31
2022/12/14 08:51:07;;;;;;;39.83;24.20;;;-6.10;99.90;;;;;;4979894;28;90358;-32
2022/12/14 08:53:33;;;;;;;36.17;23.17;;;-6.00;99.90;;;;;;4979315;28;89655;-30
2022/12/14 08:56:07;;;;;;;44.22;25.77;;;-5.90;99.90;;;;;;4979601;28;90182;-31
2022/12/14 08:58:34;;;;;;;32.67;23.45;;;-5.90;99.90;;;;;;4978950;28;88064;-32
2022/12/14 09:01:06;;;;;;;41.22;24.65;;;-5.80;99.90;;;;;;4977477;28;89972;-31
2022/12/14 09:03:33;;;;;;;42.35;22.98;;;-5.80;99.90;;;;;;4974574;28;89442;-31
2022/12/14 09:06:03;;;;;;;40.70;26.50;;;-5.70;99.90;;;;;;4977598;28;88968;-32
2022/12/14 09:08:30;;;;;;;41.05;25.25;;;-5.60;99.90;;;;;;4976343;28;88421;-32
2022/12/14 09:10:56;;;;;;;37.92;26.83;;;-5.50;99.90;;;;;;4966167;28;91430;-31
2022/12/14 09:13:21;;;;;;;41.80;23.13;;;-5.40;99.90;;;;;;4973653;28;90770;-30
2022/12/14 09:15:56;;;;;;;34.42;25.67;;;-5.30;99.90;;;;;;4976372;28;90656;-30
2022/12/14 09:18:22;;;;;;;41.15;25.00;;;-5.20;99.90;;;;;;4976365;28;88260;-32
2022/12/14 09:20:47;;;;;;;39.85;27.73;;;-4.90;99.90;;;;;;4974702;28;91023;-30
2022/12/14 09:23:13;;;;;;;45.70;29.05;;;-4.80;99.90;;;;;;4976516;28;89406;-33
2022/12/14 09:25:39;;;;;;;43.80;26.77;;;-4.60;99.90;;;;;;4995161;22;88641;-31
2022/12/14 09:28:04;;;;;;;51.30;27.58;;;-4.40;99.90;;;;;;4936212;28;89598;-32
2022/12/14 09:30:30;;;;;;;41.08;26.52;;;-4.30;99.90;;;;;;4943794;28;90443;-30
2022/12/14 09:32:55;;;;;;;35.55;22.98;;;-4.20;99.90;;;;;;4949054;28;89069;-31
2022/12/14 09:35:21;;;;;;;42.47;23.80;;;-4.20;99.90;;;;;;4947613;28;89918;-31
2022/12/14 09:37:47;;;;;;;33.13;23.00;;;-4.10;99.90;;;;;;4948657;28;88497;-32
2022/12/14 09:40:13;;;;;;;38.50;26.42;;;-4.10;99.90;;;;;;4949782;28;90307;-30
2022/12/14 09:42:44;;;;;;;42.40;25.95;;;-4.00;99.90;;;;;;4947517;28;89744;-32
2022/12/14 09:45:17;;;;;;;36.00;28.30;;;-3.90;99.90;;;;;;4940642;28;89672;-32
2022/12/14 09:48:11;;;;;;;34.85;24.67;;;-3.90;99.90;;;;;;4939881;28;88561;-33
2022/12/14 09:50:38;;;;;;;44.80;28.48;;;-3.90;99.90;;;;;;4942138;28;90105;-34
2022/12/14 09:53:12;;;;;;;36.30;24.80;;;-3.90;99.90;;;;;;4943402;28;89447;-32
2022/12/14 09:55:43;;;;;;;39.08;26.30;;;-3.90;99.90;;;;;;4941705;28;89688;-30
2022/12/14 09:58:24;;;;;;;34.95;24.95;;;-3.80;99.90;;;;;;4943685;28;88369;-30
2022/12/14 10:01:17;;;;;;;35.08;24.48;;;-3.80;99.90;;;;;;4945739;28;90215;-31
2022/12/14 10:04:02;;;;;;;39.83;25.50;;;-3.90;99.90;;;;;;4946463;28;90311;-32
2022/12/14 10:06:57;;;;;;;42.83;28.50;;;-3.90;99.90;;;;;;4937254;28;89141;-34
2022/12/14 10:09:34;;;;;;;34.58;25.13;;;-4.00;99.90;;;;;;4929256;28;88302;-30
2022/12/14 10:12:20;;;;;;;37.85;25.15;;;-4.00;99.90;;;;;;4942451;28;90306;-30
2022/12/14 10:15:04;;;;;;;38.97;24.63;;;-4.00;99.90;;;;;;4942735;28;89921;-32
2022/12/14 10:17:57;;;;;;;36.08;23.55;;;-4.00;99.90;;;;;;4942880;28;89516;-31
2022/12/14 10:20:47;;;;;;;38.38;26.25;;;-3.80;99.90;;;;;;4944004;28;88102;-33
2022/12/14 10:23:19;;;;;;;30.90;23.10;;;-3.70;99.90;;;;;;4942742;28;90573;-31
2022/12/14 10:25:48;;;;;;;50.53;27.52;;;-3.70;99.90;;;;;;4949413;28;89513;-30
2022/12/14 10:28:24;;;;;;;32.90;23.00;;;-3.70;99.90;;;;;;4949739;28;89972;-33
2022/12/14 10:30:53;;;;;;;34.58;25.77;;;-3.60;99.90;;;;;;4941732;28;89289;-31
2022/12/14 10:33:28;;;;;;;36.42;24.05;;;-3.50;99.90;;;;;;4939574;28;90377;-31
2022/12/14 10:36:13;;;;;;;36.92;23.02;;;-3.40;99.90;;;;;;4939160;28;89613;-33
2022/12/14 10:38:56;;;;;;;31.70;23.70;;;-3.20;99.90;;;;;;4939429;28;89864;-33
2022/12/14 10:41:38;;;;;;;40.17;26.08;;;-3.20;99.90;;;;;;4940308;28;88657;-33
2022/12/14 10:44:49;;;;;;;33.28;24.05;;;-3.10;99.90;;;;;;4939773;28;89639;-31
2022/12/14 10:47:43;;;;;;;34.38;25.52;;;-3.00;99.90;;;;;;4908174;28;89271;-33
2022/12/14 10:50:23;;;;;;;41.42;25.63;;;-2.90;99.90;;;;;;4939260;28;90138;-32
2022/12/14 10:52:53;;;;;;;33.50;25.10;;;-2.90;99.90;;;;;;4939511;28;88669;-32
2022/12/14 10:55:39;;;;;;;35.97;25.77;;;-2.90;99.90;;;;;;4939687;28;89986;-33
2022/12/14 10:58:05;;;;;;;36.35;23.30;;;-2.80;99.90;;;;;;4938626;28;90882;-31
2022/12/14 11:00:31;;;;;;;39.65;28.20;;;-2.70;99.90;;;;;;4938883;28;90666;-33
2022/12/14 11:02:57;;;;;;;40.05;28.88;;;-2.60;99.90;;;;;;4939656;28;89901;-31
2022/12/14 11:05:36;;;;;;;39.85;28.42;;;-2.60;99.90;;;;;;4938190;28;90962;-36
2022/12/14 11:08:02;;;;;;;38.65;28.30;;;-2.50;99.90;;;;;;4940190;28;89910;-32
2022/12/14 11:10:33;;;;;;;37.85;29.75;;;-2.50;99.90;;;;;;4939220;28;89084;-32
2022/12/14 11:13:19;;;;;;;37.30;28.98;;;-2.40;99.90;;;;;;4941859;28;88402;-32
2022/12/14 11:15:51;;;;;;;43.13;26.85;;;-2.30;99.90;;;;;;4944819;28;90192;-31
2022/12/14 11:18:16;;;;;;;36.75;26.23;;;-2.10;99.90;;;;;;4947204;28;89436;-32
2022/12/14 11:20:55;;;;;;;45.38;29.38;;;-2.10;99.90;;;;;;4948167;28;89642;-33
2022/12/14 11:23:23;;;;;;;;;;;-2.00;99.90;;;;;;4939294;28;89609;-30
2022/12/14 11:25:50;;;;;;;;;;;-2.00;99.90;;;;;;4946170;28;90100;-32
2022/12/14 11:28:28;;;;;;;38.72;22.45;;;-2.00;99.90;;;;;;4944604;28;90455;-34
2022/12/14 11:30:55;;;;;;;41.33;23.27;;;-2.00;99.90;;;;;;4945554;28;89036;-30
2022/12/14 11:33:25;;;;;;;37.15;26.40;;;-2.10;99.90;;;;;;4944395;28;88343;-31
2022/12/14 11:35:51;;;;;;;33.30;24.13;;;-2.10;99.90;;;;;;4939330;28;90483;-33
2022/12/14 11:38:18;;;;;;;38.30;27.13;;;-2.10;99.90;;;;;;4944497;28;89489;-32
2022/12/14 11:40:44;;;;;;;39.97;26.13;;;-2.10;99.90;;;;;;4943598;28;90139;-30
2022/12/14 11:43:23;;;;;;;46.42;29.08;;;-2.10;99.90;;;;;;4941255;28;88202;-30
2022/12/14 11:45:50;;;;;;;39.15;26.88;;;-2.00;99.90;;;;;;4939274;28;89796;-33
2022/12/14 11:48:15;;;;;;;35.22;28.40;;;-2.00;99.90;;;;;;4938321;28;91230;-30
2022/12/14 11:50:42;;;;;;;38.33;26.88;;;-2.00;99.90;;;;;;4939671;28;90420;-31
2022/12/14 11:53:13;;;;;;;35.03;26.52;;;-2.00;99.90;;;;;;4940006;28;88411;-31
2022/12/14 11:55:44;;;;;;;42.80;28.55;;;-1.90;99.90;;;;;;4926796;28;90235;-31
2022/12/14 11:58:37;;;;;;;40.00;26.85;;;-1.90;99.90;;;;;;4945003;28;90018;-31
2022/12/14 12:01:16;;;;;;;31.77;25.15;;;-1.90;99.90;;;;;;4945463;28;89078;-32
2022/12/14 12:03:49;;;;;;;40.88;26.38;;;-1.80;99.90;;;;;;4949653;28;88289;-30
2022/12/14 12:06:22;;;;;;;33.40;26.73;;;-1.80;99.90;;;;;;4941574;28;90106;-30
2022/12/14 12:08:59;;;;;;;37.17;23.88;;;-1.70;99.90;;;;;;4945955;28;89611;-33
2022/12/14 12:11:30;;;;;;;35.10;24.58;;;-1.70;99.90;;;;;;4936776;28;90245;-33
2022/12/14 12:14:13;;;;;;;33.17;25.17;;;-1.70;99.90;;;;;;4930775;28;88924;-31
2022/12/14 12:16:42;;;;;;;35.08;25.13;;;-1.70;99.90;;;;;;4938452;28;90643;-34
2022/12/14 12:19:14;;;;;;;34.28;25.25;;;-1.60;99.90;;;;;;4944106;28;89843;-31
2022/12/14 12:21:43;;;;;;;32.42;24.92;;;-1.60;99.90;;;;;;4937738;28;89899;-30
2022/12/14 12:24:33;;;;;;;37.85;27.10;;;-1.50;99.90;;;;;;4939309;28;88859;-31
2022/12/14 12:27:10;;;;;;;30.15;22.30;;;-1.50;99.90;;;;;;4938379;28;90121;-31
2022/12/14 12:29:54;;;;;;;33.97;24.92;;;-1.50;99.90;;;;;;4938545;28;90411;-33
2022/12/14 12:32:25;;;;;;;33.67;24.02;;;-1.50;99.90;;;;;;4945218;28;88550;-30
2022/12/14 12:35:08;;;;;;;37.28;26.45;;;-1.50;99.90;;;;;;4941645;28;88073;-32
2022/12/14 12:37:39;;;;;;;28.08;23.60;;;-1.50;99.90;;;;;;4943034;28;90107;-31
2022/12/14 12:40:25;;;;;;;32.78;25.77;;;-1.50;99.90;;;;;;4945570;28;89563;-32
2022/12/14 12:43:23;;;;;;;32.35;23.98;;;-1.60;99.90;;;;;;4933935;28;91525;-31
2022/12/14 12:46:00;;;;;;;35.00;23.90;;;-1.60;99.90;;;;;;4932156;28;88770;-30
2022/12/14 12:48:31;;;;;;;29.13;23.95;;;-1.60;99.90;;;;;;4945896;28;90911;-32
2022/12/14 12:51:14;;;;;;;36.42;24.08;;;-1.50;99.90;;;;;;4944779;28;90161;-32
2022/12/14 12:54:03;;;;;;;35.35;26.02;;;-1.50;99.90;;;;;;4946743;28;90036;-32
2022/12/14 12:56:48;;;;;;;29.17;23.55;;;-1.50;99.90;;;;;;4945195;28;89268;-34
2022/12/14 12:59:30;;;;;;;31.17;23.48;;;-1.50;99.90;;;;;;4943521;28;90774;-34
2022/12/14 13:02:18;;;;;;;36.05;24.40;;;-1.50;99.90;;;;;;4946240;28;89748;-33
2022/12/14 13:04:47;;;;;;;31.40;22.05;;;-1.50;99.90;;;;;;4938655;28;90021;-32